sensor_id;sensor_type;location;lat;lon;timestamp;P1;durP1;ratioP1;P2;durP2;ratioP2
41623;SDS011;27319;50.306;18.926;2023-02-01T00:02:27;26.30;;;14.15;;
41623;SDS011;27319;50.306;18.926;2023-02-01T00:05:28;29.98;;;15.73;;
41623;SDS011;27319;50.306;18.926;2023-02-01T00:08:29;24.80;;;14.00;;
41623;SDS011;27319;50.306;18.926;2023-02-01T00:11:30;24.73;;;13.50;;
41623;SDS011;27319;50.306;18.926;2023-02-01T00:14:31;20.95;;;10.63;;
41623;SDS011;27319;50.306;18.926;2023-02-01T00:18:32;21.98;;;10.88;;
41623;SDS011;27319;50.306;18.926;2023-02-01T00:22:28;26.00;;;13.18;;
41623;SDS011;27319;50.306;18.926;2023-02-01T00:26:36;21.80;;;12.10;;
41623;SDS011;27319;50.306;18.926;2023-02-01T00:29:39;26.90;;;15.05;;
41623;SDS011;27319;50.306;18.926;2023-02-01T00:32:40;26.85;;;14.88;;
41623;SDS011;27319;50.306;18.926;2023-02-01T00:35:40;20.98;;;12.45;;
41623;SDS011;27319;50.306;18.926;2023-02-01T00:38:41;18.90;;;11.32;;
41623;SDS011;27319;50.306;18.926;2023-02-01T00:42:38;23.60;;;10.68;;
41623;SDS011;27319;50.306;18.926;2023-02-01T00:45:38;18.98;;;9.52;;
41623;SDS011;27319;50.306;18.926;2023-02-01T00:49:42;14.18;;;7.88;;
41623;SDS011;27319;50.306;18.926;2023-02-01T00:53:43;12.40;;;6.70;;
41623;SDS011;27319;50.306;18.926;2023-02-01T00:57:44;11.90;;;6.25;;
41623;SDS011;27319;50.306;18.926;2023-02-01T01:01:45;12.82;;;6.47;;
41623;SDS011;27319;50.306;18.926;2023-02-01T01:05:47;12.02;;;4.60;;
41623;SDS011;27319;50.306;18.926;2023-02-01T01:09:47;6.60;;;3.40;;
41623;SDS011;27319;50.306;18.926;2023-02-01T01:13:48;5.80;;;2.38;;
41623;SDS011;27319;50.306;18.926;2023-02-01T01:16:51;4.82;;;2.42;;
41623;SDS011;27319;50.306;18.926;2023-02-01T01:19:52;7.55;;;3.47;;
41623;SDS011;27319;50.306;18.926;2023-02-01T01:22:53;5.82;;;2.83;;
41623;SDS011;27319;50.306;18.926;2023-02-01T01:26:54;8.63;;;3.33;;
41623;SDS011;27319;50.306;18.926;2023-02-01T01:30:38;7.40;;;4.13;;
41623;SDS011;27319;50.306;18.926;2023-02-01T01:33:39;10.18;;;2.88;;
41623;SDS011;27319;50.306;18.926;2023-02-01T01:36:40;6.57;;;2.45;;
41623;SDS011;27319;50.306;18.926;2023-02-01T01:39:41;10.35;;;2.92;;
41623;SDS011;27319;50.306;18.926;2023-02-01T01:47:55;11.65;;;3.78;;
41623;SDS011;27319;50.306;18.926;2023-02-01T01:51:02;7.35;;;3.90;;
41623;SDS011;27319;50.306;18.926;2023-02-01T01:54:28;16.98;;;6.22;;
41623;SDS011;27319;50.306;18.926;2023-02-01T01:58:16;6.63;;;2.20;;
41623;SDS011;27319;50.306;18.926;2023-02-01T02:01:19;10.30;;;4.55;;
41623;SDS011;27319;50.306;18.926;2023-02-01T02:04:20;4.47;;;2.60;;
41623;SDS011;27319;50.306;18.926;2023-02-01T02:07:23;6.75;;;2.83;;
41623;SDS011;27319;50.306;18.926;2023-02-01T02:10:27;7.22;;;3.50;;
41623;SDS011;27319;50.306;18.926;2023-02-01T02:14:28;6.28;;;3.15;;
41623;SDS011;27319;50.306;18.926;2023-02-01T02:18:32;10.43;;;2.67;;
41623;SDS011;27319;50.306;18.926;2023-02-01T02:26:07;6.93;;;4.72;;
41623;SDS011;27319;50.306;18.926;2023-02-01T02:43:49;14.30;;;7.68;;
41623;SDS011;27319;50.306;18.926;2023-02-01T02:48:16;16.50;;;9.48;;
41623;SDS011;27319;50.306;18.926;2023-02-01T02:52:16;26.30;;;14.02;;
41623;SDS011;27319;50.306;18.926;2023-02-01T02:56:15;11.93;;;6.07;;
41623;SDS011;27319;50.306;18.926;2023-02-01T02:59:37;49.75;;;31.23;;
41623;SDS011;27319;50.306;18.926;2023-02-01T03:03:00;13.85;;;6.75;;
41623;SDS011;27319;50.306;18.926;2023-02-01T03:06:22;14.02;;;9.13;;
41623;SDS011;27319;50.306;18.926;2023-02-01T03:09:30;14.18;;;7.20;;
41623;SDS011;27319;50.306;18.926;2023-02-01T03:16:58;8.30;;;4.47;;
41623;SDS011;27319;50.306;18.926;2023-02-01T03:20:58;12.32;;;6.45;;
41623;SDS011;27319;50.306;18.926;2023-02-01T03:24:05;12.85;;;4.30;;
41623;SDS011;27319;50.306;18.926;2023-02-01T03:27:37;16.55;;;9.50;;
41623;SDS011;27319;50.306;18.926;2023-02-01T03:31:36;10.48;;;5.55;;
41623;SDS011;27319;50.306;18.926;2023-02-01T03:39:22;9.07;;;5.10;;
41623;SDS011;27319;50.306;18.926;2023-02-01T03:45:36;23.02;;;7.65;;
41623;SDS011;27319;50.306;18.926;2023-02-01T03:48:42;47.47;;;20.88;;
41623;SDS011;27319;50.306;18.926;2023-02-01T03:52:32;11.00;;;6.07;;
41623;SDS011;27319;50.306;18.926;2023-02-01T03:55:55;16.95;;;7.72;;
41623;SDS011;27319;50.306;18.926;2023-02-01T03:58:57;52.08;;;27.48;;
41623;SDS011;27319;50.306;18.926;2023-02-01T04:01:59;11.55;;;6.25;;
41623;SDS011;27319;50.306;18.926;2023-02-01T04:05:00;15.63;;;4.93;;
41623;SDS011;27319;50.306;18.926;2023-02-01T04:08:01;23.83;;;11.25;;
41623;SDS011;27319;50.306;18.926;2023-02-01T04:11:02;30.17;;;11.88;;
41623;SDS011;27319;50.306;18.926;2023-02-01T04:14:03;16.02;;;9.48;;
41623;SDS011;27319;50.306;18.926;2023-02-01T04:17:04;64.65;;;29.13;;
41623;SDS011;27319;50.306;18.926;2023-02-01T04:21:05;20.10;;;9.88;;
41623;SDS011;27319;50.306;18.926;2023-02-01T04:25:06;24.38;;;12.57;;
41623;SDS011;27319;50.306;18.926;2023-02-01T04:29:08;85.13;;;43.20;;
41623;SDS011;27319;50.306;18.926;2023-02-01T04:33:08;39.70;;;22.08;;
41623;SDS011;27319;50.306;18.926;2023-02-01T04:36:09;42.42;;;22.52;;
41623;SDS011;27319;50.306;18.926;2023-02-01T04:39:10;145.02;;;75.03;;
41623;SDS011;27319;50.306;18.926;2023-02-01T04:43:11;138.77;;;75.35;;
41623;SDS011;27319;50.306;18.926;2023-02-01T04:47:12;80.63;;;42.33;;
41623;SDS011;27319;50.306;18.926;2023-02-01T04:51:13;71.18;;;35.83;;
41623;SDS011;27319;50.306;18.926;2023-02-01T04:54:15;36.75;;;24.58;;
41623;SDS011;27319;50.306;18.926;2023-02-01T04:57:16;83.72;;;37.60;;
41623;SDS011;27319;50.306;18.926;2023-02-01T05:01:16;201.30;;;87.22;;
41623;SDS011;27319;50.306;18.926;2023-02-01T05:04:18;256.65;;;116.57;;
41623;SDS011;27319;50.306;18.926;2023-02-01T05:07:18;133.82;;;68.97;;
41623;SDS011;27319;50.306;18.926;2023-02-01T05:11:19;219.95;;;107.40;;
41623;SDS011;27319;50.306;18.926;2023-02-01T05:15:18;114.87;;;57.40;;
41623;SDS011;27319;50.306;18.926;2023-02-01T05:18:19;78.10;;;38.35;;
41623;SDS011;27319;50.306;18.926;2023-02-01T05:21:20;158.52;;;86.00;;
41623;SDS011;27319;50.306;18.926;2023-02-01T05:25:21;124.32;;;67.90;;
41623;SDS011;27319;50.306;18.926;2023-02-01T05:29:22;53.22;;;34.85;;
41623;SDS011;27319;50.306;18.926;2023-02-01T05:33:22;42.38;;;27.55;;
41623;SDS011;27319;50.306;18.926;2023-02-01T05:36:23;41.28;;;25.67;;
41623;SDS011;27319;50.306;18.926;2023-02-01T05:39:24;48.38;;;30.33;;
41623;SDS011;27319;50.306;18.926;2023-02-01T05:43:25;38.03;;;21.35;;
41623;SDS011;27319;50.306;18.926;2023-02-01T05:47:00;43.78;;;24.58;;
41623;SDS011;27319;50.306;18.926;2023-02-01T05:50:02;30.50;;;17.65;;
41623;SDS011;27319;50.306;18.926;2023-02-01T05:53:03;51.58;;;24.75;;
41623;SDS011;27319;50.306;18.926;2023-02-01T05:57:04;124.32;;;62.65;;
41623;SDS011;27319;50.306;18.926;2023-02-01T06:00:05;114.65;;;59.28;;
41623;SDS011;27319;50.306;18.926;2023-02-01T06:03:07;100.35;;;58.58;;
41623;SDS011;27319;50.306;18.926;2023-02-01T06:06:08;101.32;;;58.17;;
41623;SDS011;27319;50.306;18.926;2023-02-01T06:09:10;67.68;;;34.10;;
41623;SDS011;27319;50.306;18.926;2023-02-01T06:12:11;59.90;;;31.13;;
41623;SDS011;27319;50.306;18.926;2023-02-01T06:15:12;36.28;;;19.50;;
41623;SDS011;27319;50.306;18.926;2023-02-01T06:19:13;112.95;;;61.00;;
41623;SDS011;27319;50.306;18.926;2023-02-01T06:22:49;35.50;;;18.38;;
41623;SDS011;27319;50.306;18.926;2023-02-01T06:26:50;42.08;;;15.88;;
41623;SDS011;27319;50.306;18.926;2023-02-01T06:29:51;55.97;;;28.75;;
41623;SDS011;27319;50.306;18.926;2023-02-01T06:32:52;89.05;;;43.35;;
41623;SDS011;27319;50.306;18.926;2023-02-01T06:35:56;25.73;;;12.70;;
41623;SDS011;27319;50.306;18.926;2023-02-01T06:39:56;41.90;;;19.60;;
41623;SDS011;27319;50.306;18.926;2023-02-01T06:43:57;34.10;;;15.95;;
41623;SDS011;27319;50.306;18.926;2023-02-01T06:47:58;37.33;;;16.38;;
41623;SDS011;27319;50.306;18.926;2023-02-01T06:51:59;23.13;;;9.55;;
41623;SDS011;27319;50.306;18.926;2023-02-01T06:56:01;56.50;;;30.30;;
41623;SDS011;27319;50.306;18.926;2023-02-01T07:00:02;48.88;;;25.08;;
41623;SDS011;27319;50.306;18.926;2023-02-01T07:03:03;45.95;;;21.70;;
41623;SDS011;27319;50.306;18.926;2023-02-01T07:06:05;44.65;;;20.23;;
41623;SDS011;27319;50.306;18.926;2023-02-01T07:09:07;38.92;;;17.52;;
41623;SDS011;27319;50.306;18.926;2023-02-01T07:13:07;35.55;;;17.17;;
41623;SDS011;27319;50.306;18.926;2023-02-01T07:17:08;38.72;;;18.23;;
41623;SDS011;27319;50.306;18.926;2023-02-01T07:21:09;64.57;;;28.33;;
41623;SDS011;27319;50.306;18.926;2023-02-01T07:25:10;55.88;;;24.17;;
41623;SDS011;27319;50.306;18.926;2023-02-01T07:29:11;57.03;;;24.13;;
41623;SDS011;27319;50.306;18.926;2023-02-01T07:33:12;95.05;;;40.17;;
41623;SDS011;27319;50.306;18.926;2023-02-01T07:37:13;84.25;;;35.17;;
41623;SDS011;27319;50.306;18.926;2023-02-01T07:41:14;94.70;;;42.15;;
41623;SDS011;27319;50.306;18.926;2023-02-01T07:45:14;65.57;;;29.85;;
41623;SDS011;27319;50.306;18.926;2023-02-01T07:49:15;82.30;;;38.55;;
41623;SDS011;27319;50.306;18.926;2023-02-01T07:53:16;78.70;;;37.47;;
41623;SDS011;27319;50.306;18.926;2023-02-01T07:57:17;106.90;;;49.88;;
41623;SDS011;27319;50.306;18.926;2023-02-01T08:01:19;61.33;;;25.20;;
41623;SDS011;27319;50.306;18.926;2023-02-01T08:04:24;56.95;;;29.42;;
41623;SDS011;27319;50.306;18.926;2023-02-01T08:07:25;55.67;;;28.08;;
41623;SDS011;27319;50.306;18.926;2023-02-01T08:10:26;62.15;;;32.25;;
41623;SDS011;27319;50.306;18.926;2023-02-01T08:13:27;80.32;;;41.92;;
41623;SDS011;27319;50.306;18.926;2023-02-01T08:16:28;109.53;;;53.15;;
41623;SDS011;27319;50.306;18.926;2023-02-01T08:20:29;73.80;;;36.03;;
41623;SDS011;27319;50.306;18.926;2023-02-01T08:24:30;79.28;;;38.45;;
41623;SDS011;27319;50.306;18.926;2023-02-01T08:28:31;73.30;;;35.05;;
41623;SDS011;27319;50.306;18.926;2023-02-01T08:32:37;70.50;;;37.00;;
41623;SDS011;27319;50.306;18.926;2023-02-01T08:36:38;66.15;;;32.90;;
41623;SDS011;27319;50.306;18.926;2023-02-01T08:40:19;95.03;;;46.13;;
41623;SDS011;27319;50.306;18.926;2023-02-01T08:43:21;58.05;;;27.50;;
41623;SDS011;27319;50.306;18.926;2023-02-01T08:46:23;68.22;;;36.95;;
41623;SDS011;27319;50.306;18.926;2023-02-01T08:50:24;62.75;;;32.15;;
41623;SDS011;27319;50.306;18.926;2023-02-01T08:54:24;52.10;;;26.20;;
41623;SDS011;27319;50.306;18.926;2023-02-01T08:57:25;41.05;;;23.50;;
41623;SDS011;27319;50.306;18.926;2023-02-01T09:00:26;66.40;;;31.27;;
41623;SDS011;27319;50.306;18.926;2023-02-01T09:03:27;55.67;;;30.88;;
41623;SDS011;27319;50.306;18.926;2023-02-01T09:06:28;37.75;;;22.55;;
41623;SDS011;27319;50.306;18.926;2023-02-01T09:09:29;36.28;;;19.65;;
41623;SDS011;27319;50.306;18.926;2023-02-01T09:13:30;51.28;;;24.92;;
41623;SDS011;27319;50.306;18.926;2023-02-01T09:17:31;65.50;;;27.42;;
41623;SDS011;27319;50.306;18.926;2023-02-01T09:21:32;41.10;;;19.08;;
41623;SDS011;27319;50.306;18.926;2023-02-01T09:25:32;81.65;;;37.28;;
41623;SDS011;27319;50.306;18.926;2023-02-01T09:29:33;50.83;;;23.25;;
41623;SDS011;27319;50.306;18.926;2023-02-01T09:33:34;124.28;;;58.35;;
41623;SDS011;27319;50.306;18.926;2023-02-01T09:37:35;209.52;;;98.57;;
41623;SDS011;27319;50.306;18.926;2023-02-01T09:41:55;127.57;;;60.08;;
41623;SDS011;27319;50.306;18.926;2023-02-01T09:45:49;51.92;;;23.55;;
41623;SDS011;27319;50.306;18.926;2023-02-01T09:53:41;54.17;;;25.77;;
41623;SDS011;27319;50.306;18.926;2023-02-01T09:57:44;59.78;;;31.92;;
41623;SDS011;27319;50.306;18.926;2023-02-01T10:01:42;63.70;;;34.63;;
41623;SDS011;27319;50.306;18.926;2023-02-01T10:04:43;62.92;;;30.98;;
41623;SDS011;27319;50.306;18.926;2023-02-01T10:20:01;68.43;;;30.98;;
41623;SDS011;27319;50.306;18.926;2023-02-01T10:27:37;86.53;;;39.17;;
41623;SDS011;27319;50.306;18.926;2023-02-01T10:31:38;58.15;;;25.33;;
41623;SDS011;27319;50.306;18.926;2023-02-01T10:35:31;83.22;;;36.72;;
41623;SDS011;27319;50.306;18.926;2023-02-01T10:38:34;88.20;;;44.65;;
41623;SDS011;27319;50.306;18.926;2023-02-01T10:42:35;70.97;;;39.75;;
41623;SDS011;27319;50.306;18.926;2023-02-01T10:46:38;54.03;;;28.08;;
41623;SDS011;27319;50.306;18.926;2023-02-01T10:50:57;71.78;;;36.17;;
41623;SDS011;27319;50.306;18.926;2023-02-01T10:54:55;56.72;;;26.35;;
41623;SDS011;27319;50.306;18.926;2023-02-01T10:59:01;54.65;;;28.73;;
41623;SDS011;27319;50.306;18.926;2023-02-01T11:02:57;54.00;;;26.17;;
41623;SDS011;27319;50.306;18.926;2023-02-01T11:07:07;40.30;;;20.90;;
41623;SDS011;27319;50.306;18.926;2023-02-01T11:11:07;44.38;;;22.45;;
41623;SDS011;27319;50.306;18.926;2023-02-01T11:15:21;46.97;;;20.88;;
41623;SDS011;27319;50.306;18.926;2023-02-01T11:19:21;74.45;;;40.15;;
41623;SDS011;27319;50.306;18.926;2023-02-01T11:23:25;53.03;;;31.98;;
41623;SDS011;27319;50.306;18.926;2023-02-01T11:27:25;68.32;;;41.47;;
41623;SDS011;27319;50.306;18.926;2023-02-01T11:31:26;33.05;;;17.50;;
41623;SDS011;27319;50.306;18.926;2023-02-01T11:35:26;25.85;;;15.43;;
41623;SDS011;27319;50.306;18.926;2023-02-01T11:39:29;34.03;;;17.13;;
41623;SDS011;27319;50.306;18.926;2023-02-01T11:43:34;25.02;;;14.43;;
41623;SDS011;27319;50.306;18.926;2023-02-01T11:47:39;60.55;;;36.28;;
41623;SDS011;27319;50.306;18.926;2023-02-01T11:52:04;32.90;;;21.15;;
41623;SDS011;27319;50.306;18.926;2023-02-01T11:59:04;17.60;;;10.07;;
41623;SDS011;27319;50.306;18.926;2023-02-01T12:14:06;30.13;;;17.85;;
41623;SDS011;27319;50.306;18.926;2023-02-01T12:18:04;35.47;;;22.15;;
41623;SDS011;27319;50.306;18.926;2023-02-01T12:21:59;36.15;;;25.40;;
41623;SDS011;27319;50.306;18.926;2023-02-01T12:25:57;33.13;;;20.05;;
41623;SDS011;27319;50.306;18.926;2023-02-01T12:29:49;23.15;;;14.55;;
41623;SDS011;27319;50.306;18.926;2023-02-01T12:33:44;19.52;;;12.73;;
41623;SDS011;27319;50.306;18.926;2023-02-01T12:41:36;30.13;;;17.20;;
41623;SDS011;27319;50.306;18.926;2023-02-01T12:53:09;21.30;;;11.57;;
41623;SDS011;27319;50.306;18.926;2023-02-01T12:57:27;33.78;;;15.95;;
41623;SDS011;27319;50.306;18.926;2023-02-01T13:01:14;27.15;;;14.20;;
41623;SDS011;27319;50.306;18.926;2023-02-01T13:08:03;24.30;;;16.00;;
41623;SDS011;27319;50.306;18.926;2023-02-01T13:11:24;30.40;;;16.05;;
41623;SDS011;27319;50.306;18.926;2023-02-01T13:17:39;24.35;;;14.13;;
41623;SDS011;27319;50.306;18.926;2023-02-01T13:21:42;24.20;;;11.00;;
41623;SDS011;27319;50.306;18.926;2023-02-01T13:25:46;18.17;;;10.13;;
41623;SDS011;27319;50.306;18.926;2023-02-01T13:29:50;22.17;;;13.00;;
41623;SDS011;27319;50.306;18.926;2023-02-01T13:37:45;22.67;;;14.07;;
41623;SDS011;27319;50.306;18.926;2023-02-01T13:41:41;78.50;;;47.50;;
41623;SDS011;27319;50.306;18.926;2023-02-01T13:45:43;30.38;;;17.13;;
41623;SDS011;27319;50.306;18.926;2023-02-01T13:49:45;26.98;;;16.40;;
41623;SDS011;27319;50.306;18.926;2023-02-01T13:54:01;43.63;;;23.98;;
41623;SDS011;27319;50.306;18.926;2023-02-01T13:58:04;22.67;;;12.57;;
41623;SDS011;27319;50.306;18.926;2023-02-01T14:09:13;83.55;;;49.38;;
41623;SDS011;27319;50.306;18.926;2023-02-01T14:24:24;56.15;;;30.13;;
41623;SDS011;27319;50.306;18.926;2023-02-01T14:28:23;89.00;;;52.33;;
41623;SDS011;27319;50.306;18.926;2023-02-01T14:32:22;34.17;;;23.48;;
41623;SDS011;27319;50.306;18.926;2023-02-01T14:36:23;64.45;;;41.22;;
41623;SDS011;27319;50.306;18.926;2023-02-01T14:40:25;58.13;;;36.97;;
41623;SDS011;27319;50.306;18.926;2023-02-01T14:44:26;48.65;;;29.33;;
41623;SDS011;27319;50.306;18.926;2023-02-01T14:51:46;57.47;;;36.22;;
41623;SDS011;27319;50.306;18.926;2023-02-01T14:56:30;56.72;;;35.67;;
41623;SDS011;27319;50.306;18.926;2023-02-01T14:59:59;39.75;;;25.30;;
41623;SDS011;27319;50.306;18.926;2023-02-01T15:07:07;49.95;;;32.05;;
41623;SDS011;27319;50.306;18.926;2023-02-01T15:10:11;45.38;;;28.35;;
41623;SDS011;27319;50.306;18.926;2023-02-01T15:13:47;58.53;;;38.00;;
41623;SDS011;27319;50.306;18.926;2023-02-01T15:16:47;43.30;;;24.08;;
41623;SDS011;27319;50.306;18.926;2023-02-01T15:21:01;60.42;;;34.70;;
41623;SDS011;27319;50.306;18.926;2023-02-01T15:24:19;33.05;;;18.35;;
41623;SDS011;27319;50.306;18.926;2023-02-01T15:28:19;58.20;;;37.95;;
41623;SDS011;27319;50.306;18.926;2023-02-01T15:32:28;35.60;;;18.75;;
41623;SDS011;27319;50.306;18.926;2023-02-01T15:36:23;34.60;;;20.20;;
41623;SDS011;27319;50.306;18.926;2023-02-01T15:40:24;38.75;;;22.13;;
41623;SDS011;27319;50.306;18.926;2023-02-01T15:44:28;27.10;;;15.07;;
41623;SDS011;27319;50.306;18.926;2023-02-01T15:48:29;39.85;;;24.42;;
41623;SDS011;27319;50.306;18.926;2023-02-01T15:56:15;37.67;;;22.58;;
41623;SDS011;27319;50.306;18.926;2023-02-01T16:00:23;27.83;;;17.20;;
41623;SDS011;27319;50.306;18.926;2023-02-01T16:07:24;25.02;;;13.70;;
41623;SDS011;27319;50.306;18.926;2023-02-01T16:14:48;38.05;;;23.20;;
41623;SDS011;27319;50.306;18.926;2023-02-01T16:17:49;40.03;;;21.50;;
41623;SDS011;27319;50.306;18.926;2023-02-01T16:20:50;58.70;;;29.17;;
41623;SDS011;27319;50.306;18.926;2023-02-01T16:23:52;52.65;;;30.85;;
41623;SDS011;27319;50.306;18.926;2023-02-01T16:27:52;38.58;;;20.48;;
41623;SDS011;27319;50.306;18.926;2023-02-01T16:31:53;41.83;;;22.33;;
41623;SDS011;27319;50.306;18.926;2023-02-01T16:35:55;64.20;;;35.30;;
41623;SDS011;27319;50.306;18.926;2023-02-01T16:39:54;82.88;;;35.58;;
41623;SDS011;27319;50.306;18.926;2023-02-01T16:42:55;85.65;;;35.53;;
41623;SDS011;27319;50.306;18.926;2023-02-01T16:46:59;87.95;;;40.42;;
41623;SDS011;27319;50.306;18.926;2023-02-01T16:51:04;72.30;;;38.60;;
41623;SDS011;27319;50.306;18.926;2023-02-01T16:55:00;40.60;;;19.73;;
41623;SDS011;27319;50.306;18.926;2023-02-01T16:59:01;69.38;;;37.53;;
41623;SDS011;27319;50.306;18.926;2023-02-01T17:03:02;62.13;;;37.13;;
41623;SDS011;27319;50.306;18.926;2023-02-01T17:06:05;63.15;;;34.95;;
41623;SDS011;27319;50.306;18.926;2023-02-01T17:09:08;61.75;;;31.42;;
41623;SDS011;27319;50.306;18.926;2023-02-01T17:15:26;46.38;;;22.27;;
41623;SDS011;27319;50.306;18.926;2023-02-01T17:18:31;68.55;;;32.97;;
41623;SDS011;27319;50.306;18.926;2023-02-01T17:21:41;31.73;;;15.63;;
41623;SDS011;27319;50.306;18.926;2023-02-01T17:24:44;40.35;;;22.13;;
41623;SDS011;27319;50.306;18.926;2023-02-01T17:27:46;43.10;;;20.27;;
41623;SDS011;27319;50.306;18.926;2023-02-01T17:30:47;55.53;;;29.83;;
41623;SDS011;27319;50.306;18.926;2023-02-01T17:34:48;52.83;;;25.45;;
41623;SDS011;27319;50.306;18.926;2023-02-01T17:38:49;60.33;;;28.42;;
41623;SDS011;27319;50.306;18.926;2023-02-01T17:42:48;49.80;;;25.75;;
41623;SDS011;27319;50.306;18.926;2023-02-01T17:46:14;32.45;;;18.08;;
41623;SDS011;27319;50.306;18.926;2023-02-01T17:50:13;42.55;;;22.15;;
41623;SDS011;27319;50.306;18.926;2023-02-01T17:54:14;35.00;;;18.67;;
41623;SDS011;27319;50.306;18.926;2023-02-01T17:58:15;39.63;;;19.55;;
41623;SDS011;27319;50.306;18.926;2023-02-01T18:02:20;29.15;;;15.30;;
41623;SDS011;27319;50.306;18.926;2023-02-01T18:05:25;41.95;;;22.85;;
41623;SDS011;27319;50.306;18.926;2023-02-01T18:09:23;38.35;;;20.52;;
41623;SDS011;27319;50.306;18.926;2023-02-01T18:13:24;40.35;;;20.30;;
41623;SDS011;27319;50.306;18.926;2023-02-01T18:17:25;43.65;;;24.88;;
41623;SDS011;27319;50.306;18.926;2023-02-01T18:21:28;63.30;;;31.40;;
41623;SDS011;27319;50.306;18.926;2023-02-01T18:25:27;89.43;;;50.13;;
41623;SDS011;27319;50.306;18.926;2023-02-01T18:29:27;74.18;;;42.30;;
41623;SDS011;27319;50.306;18.926;2023-02-01T18:33:28;55.33;;;32.75;;
41623;SDS011;27319;50.306;18.926;2023-02-01T18:37:29;45.33;;;28.42;;
41623;SDS011;27319;50.306;18.926;2023-02-01T18:41:30;46.13;;;26.05;;
41623;SDS011;27319;50.306;18.926;2023-02-01T18:49:11;45.13;;;20.05;;
41623;SDS011;27319;50.306;18.926;2023-02-01T18:52:17;53.38;;;23.15;;
41623;SDS011;27319;50.306;18.926;2023-02-01T18:56:18;57.88;;;24.45;;
41623;SDS011;27319;50.306;18.926;2023-02-01T19:00:19;62.30;;;24.60;;
41623;SDS011;27319;50.306;18.926;2023-02-01T19:03:21;110.25;;;42.78;;
41623;SDS011;27319;50.306;18.926;2023-02-01T19:07:22;102.30;;;42.65;;
41623;SDS011;27319;50.306;18.926;2023-02-01T19:11:23;68.85;;;34.13;;
41623;SDS011;27319;50.306;18.926;2023-02-01T19:15:24;51.22;;;25.25;;
41623;SDS011;27319;50.306;18.926;2023-02-01T19:19:25;34.97;;;19.90;;
41623;SDS011;27319;50.306;18.926;2023-02-01T19:23:25;51.65;;;26.75;;
41623;SDS011;27319;50.306;18.926;2023-02-01T19:27:26;43.88;;;24.17;;
41623;SDS011;27319;50.306;18.926;2023-02-01T19:31:27;51.10;;;27.85;;
41623;SDS011;27319;50.306;18.926;2023-02-01T19:35:28;56.75;;;26.40;;
41623;SDS011;27319;50.306;18.926;2023-02-01T19:39:29;47.72;;;25.90;;
41623;SDS011;27319;50.306;18.926;2023-02-01T19:43:30;51.55;;;27.63;;
41623;SDS011;27319;50.306;18.926;2023-02-01T19:47:31;52.75;;;27.38;;
41623;SDS011;27319;50.306;18.926;2023-02-01T19:51:32;49.20;;;25.70;;
41623;SDS011;27319;50.306;18.926;2023-02-01T19:55:32;65.90;;;34.15;;
41623;SDS011;27319;50.306;18.926;2023-02-01T19:59:33;56.30;;;28.10;;
41623;SDS011;27319;50.306;18.926;2023-02-01T20:02:34;57.35;;;28.02;;
41623;SDS011;27319;50.306;18.926;2023-02-01T20:05:35;44.50;;;27.42;;
41623;SDS011;27319;50.306;18.926;2023-02-01T20:08:36;42.08;;;21.95;;
41623;SDS011;27319;50.306;18.926;2023-02-01T20:11:37;44.97;;;22.08;;
41623;SDS011;27319;50.306;18.926;2023-02-01T20:15:38;41.40;;;22.15;;
41623;SDS011;27319;50.306;18.926;2023-02-01T20:18:38;39.47;;;22.33;;
41623;SDS011;27319;50.306;18.926;2023-02-01T20:21:40;40.35;;;21.50;;
41623;SDS011;27319;50.306;18.926;2023-02-01T20:25:41;40.05;;;21.15;;
41623;SDS011;27319;50.306;18.926;2023-02-01T20:29:43;40.60;;;21.10;;
41623;SDS011;27319;50.306;18.926;2023-02-01T20:32:47;48.70;;;26.45;;
41623;SDS011;27319;50.306;18.926;2023-02-01T20:35:50;51.42;;;27.05;;
41623;SDS011;27319;50.306;18.926;2023-02-01T20:39:50;60.85;;;29.38;;
41623;SDS011;27319;50.306;18.926;2023-02-01T20:42:51;78.65;;;36.88;;
41623;SDS011;27319;50.306;18.926;2023-02-01T20:46:52;67.53;;;34.00;;
41623;SDS011;27319;50.306;18.926;2023-02-01T20:50:54;66.32;;;32.90;;
41623;SDS011;27319;50.306;18.926;2023-02-01T20:53:56;47.28;;;25.20;;
41623;SDS011;27319;50.306;18.926;2023-02-01T20:56:57;45.45;;;23.83;;
41623;SDS011;27319;50.306;18.926;2023-02-01T21:00:58;44.78;;;23.30;;
41623;SDS011;27319;50.306;18.926;2023-02-01T21:03:58;45.03;;;24.38;;
41623;SDS011;27319;50.306;18.926;2023-02-01T21:07:15;50.28;;;26.55;;
41623;SDS011;27319;50.306;18.926;2023-02-01T21:11:16;42.33;;;22.48;;
41623;SDS011;27319;50.306;18.926;2023-02-01T21:15:16;42.85;;;21.90;;
41623;SDS011;27319;50.306;18.926;2023-02-01T21:19:17;36.42;;;19.05;;
41623;SDS011;27319;50.306;18.926;2023-02-01T21:23:18;43.22;;;19.45;;
41623;SDS011;27319;50.306;18.926;2023-02-01T21:26:21;45.67;;;21.25;;
41623;SDS011;27319;50.306;18.926;2023-02-01T21:29:23;35.97;;;17.88;;
41623;SDS011;27319;50.306;18.926;2023-02-01T21:33:24;27.63;;;15.40;;
41623;SDS011;27319;50.306;18.926;2023-02-01T21:37:25;25.30;;;13.75;;
41623;SDS011;27319;50.306;18.926;2023-02-01T21:41:25;30.75;;;17.25;;
41623;SDS011;27319;50.306;18.926;2023-02-01T21:45:35;30.27;;;16.13;;
41623;SDS011;27319;50.306;18.926;2023-02-01T21:49:36;33.20;;;17.67;;
41623;SDS011;27319;50.306;18.926;2023-02-01T21:53:37;35.67;;;16.55;;
41623;SDS011;27319;50.306;18.926;2023-02-01T21:56:39;38.97;;;17.52;;
41623;SDS011;27319;50.306;18.926;2023-02-01T21:59:41;32.38;;;16.25;;
41623;SDS011;27319;50.306;18.926;2023-02-01T22:02:43;38.08;;;19.13;;
41623;SDS011;27319;50.306;18.926;2023-02-01T22:05:47;40.55;;;18.70;;
41623;SDS011;27319;50.306;18.926;2023-02-01T22:09:45;36.85;;;18.33;;
41623;SDS011;27319;50.306;18.926;2023-02-01T22:13:11;37.40;;;17.95;;
41623;SDS011;27319;50.306;18.926;2023-02-01T22:16:13;39.08;;;19.48;;
41623;SDS011;27319;50.306;18.926;2023-02-01T22:19:17;48.38;;;23.15;;
41623;SDS011;27319;50.306;18.926;2023-02-01T22:22:18;44.63;;;19.95;;
41623;SDS011;27319;50.306;18.926;2023-02-01T22:25:19;42.45;;;17.92;;
41623;SDS011;27319;50.306;18.926;2023-02-01T22:28:20;39.47;;;19.55;;
41623;SDS011;27319;50.306;18.926;2023-02-01T22:32:21;48.17;;;23.40;;
41623;SDS011;27319;50.306;18.926;2023-02-01T22:35:22;36.83;;;17.55;;
41623;SDS011;27319;50.306;18.926;2023-02-01T22:38:23;26.52;;;13.20;;
41623;SDS011;27319;50.306;18.926;2023-02-01T22:41:24;28.30;;;12.02;;
41623;SDS011;27319;50.306;18.926;2023-02-01T22:44:25;26.42;;;10.23;;
41623;SDS011;27319;50.306;18.926;2023-02-01T22:47:26;14.95;;;7.78;;
41623;SDS011;27319;50.306;18.926;2023-02-01T22:50:28;16.15;;;6.32;;
41623;SDS011;27319;50.306;18.926;2023-02-01T22:53:29;15.27;;;6.80;;
41623;SDS011;27319;50.306;18.926;2023-02-01T22:56:32;14.40;;;6.40;;
41623;SDS011;27319;50.306;18.926;2023-02-01T22:59:34;17.15;;;8.27;;
41623;SDS011;27319;50.306;18.926;2023-02-01T23:02:35;10.90;;;6.32;;
41623;SDS011;27319;50.306;18.926;2023-02-01T23:05:36;13.00;;;6.32;;
41623;SDS011;27319;50.306;18.926;2023-02-01T23:08:37;15.60;;;7.05;;
41623;SDS011;27319;50.306;18.926;2023-02-01T23:11:40;10.70;;;5.90;;